createdAt,value
2022-12-14T00:00:13.166Z,-0.07
2022-12-14T00:02:41.549Z,-0.06
2022-12-14T00:05:10.793Z,-0.08
2022-12-14T00:07:39.061Z,-0.01
2022-12-14T00:10:08.488Z,-0.01
2022-12-14T00:12:36.743Z,-0.07
2022-12-14T00:15:08.837Z,-0.08
2022-12-14T00:17:37.195Z,-0.05
2022-12-14T00:20:07.239Z,-0.41
2022-12-14T00:22:35.636Z,-0.15
2022-12-14T00:25:04.669Z,-0.26
2022-12-14T00:27:33.095Z,-0.16
2022-12-14T00:30:01.451Z,-0.34
2022-12-14T00:32:31.064Z,-0.25
2022-12-14T00:35:01.418Z,-0.37
2022-12-14T00:37:29.712Z,-0.46
2022-12-14T00:39:58.003Z,-0.42
2022-12-14T00:42:26.450Z,-0.70
2022-12-14T00:44:54.824Z,-0.48
2022-12-14T00:47:23.285Z,-0.59
2022-12-14T00:49:53.462Z,-0.62
2022-12-14T00:52:21.975Z,-0.52
2022-12-14T00:54:50.330Z,-0.56
2022-12-14T00:57:18.617Z,-0.45
2022-12-14T00:59:46.874Z,-0.54
2022-12-14T01:02:15.263Z,-0.67
2022-12-14T01:04:43.664Z,-0.43
2022-12-14T01:07:13.811Z,-0.32
2022-12-14T01:09:42.211Z,-0.29
2022-12-14T01:12:10.536Z,-0.25
2022-12-14T01:14:38.832Z,-0.25
2022-12-14T01:17:08.029Z,-0.22
2022-12-14T01:19:36.324Z,-0.49
2022-12-14T01:22:05.312Z,-0.32
2022-12-14T01:24:34.959Z,-0.40
2022-12-14T01:27:03.933Z,-0.26
2022-12-14T01:29:32.342Z,-0.36
2022-12-14T01:32:00.783Z,-0.27
2022-12-14T01:34:29.075Z,-0.30
2022-12-14T01:36:57.480Z,-0.33
2022-12-14T01:39:25.878Z,-0.28
2022-12-14T01:41:55.985Z,-0.30
2022-12-14T01:45:04.409Z,-0.20
2022-12-14T01:47:42.151Z,-0.36
2022-12-14T01:50:19.952Z,-0.34
2022-12-14T01:52:52.936Z,-0.19
2022-12-14T01:55:26.000Z,-0.33
2022-12-14T01:58:01.182Z,-0.20
2022-12-14T02:00:29.609Z,-0.23
2022-12-14T02:03:03.572Z,-0.27
2022-12-14T02:05:34.570Z,-0.20
2022-12-14T02:08:04.010Z,-0.31
2022-12-14T02:10:34.664Z,-0.21
2022-12-14T02:13:14.653Z,-0.29
2022-12-14T02:15:44.464Z,-0.35
2022-12-14T02:18:19.023Z,-0.19
2022-12-14T02:21:06.951Z,-0.20
2022-12-14T02:24:18.781Z,-0.22
2022-12-14T02:27:11.164Z,-0.27
2022-12-14T02:30:00.796Z,-0.40
2022-12-14T02:32:50.575Z,-0.29
2022-12-14T02:35:28.032Z,-0.35
2022-12-14T02:38:08.892Z,-0.37
2022-12-14T02:40:46.298Z,-0.29
2022-12-14T02:43:24.067Z,-0.48
2022-12-14T02:46:04.498Z,-0.31
2022-12-14T02:48:40.684Z,-0.25
2022-12-14T02:51:19.793Z,-0.25
2022-12-14T02:53:54.963Z,-0.28
2022-12-14T02:56:32.764Z,-0.36
2022-12-14T02:59:02.839Z,-0.30
2022-12-14T03:01:33.817Z,-0.18
2022-12-14T03:04:03.491Z,-0.11
2022-12-14T03:06:32.186Z,-0.12
2022-12-14T03:09:05.930Z,-0.13
2022-12-14T03:11:42.433Z,-0.06
2022-12-14T03:14:17.901Z,-0.22
2022-12-14T03:16:52.056Z,-0.08
2022-12-14T03:19:25.986Z,-0.05
2022-12-14T03:22:00.807Z,-0.14
2022-12-14T03:24:35.908Z,-0.23
2022-12-14T03:27:13.926Z,-0.12
2022-12-14T03:29:46.986Z,-0.20
2022-12-14T03:32:24.309Z,-0.15
2022-12-14T03:35:01.361Z,-0.31
2022-12-14T03:37:39.070Z,-0.20
2022-12-14T03:40:11.733Z,-0.23
2022-12-14T03:42:49.457Z,-0.18
2022-12-14T03:45:24.236Z,-0.35
2022-12-14T03:48:11.694Z,-0.28
2022-12-14T03:50:46.200Z,-0.19
2022-12-14T03:53:22.693Z,-0.23
2022-12-14T03:56:02.104Z,-0.18
2022-12-14T03:58:41.343Z,-0.34
2022-12-14T04:01:18.779Z,-0.17
2022-12-14T04:03:59.003Z,-0.16
2022-12-14T04:06:35.596Z,-0.19
2022-12-14T04:09:16.372Z,-0.20
2022-12-14T04:12:09.533Z,-0.23
2022-12-14T04:15:08.972Z,-0.16
2022-12-14T04:17:57.959Z,-0.14
2022-12-14T04:20:32.621Z,-0.14
2022-12-14T04:23:08.579Z,-0.20
2022-12-14T04:25:59.474Z,-0.18
2022-12-14T04:28:50.114Z,-0.14
2022-12-14T04:31:24.586Z,-0.06
2022-12-14T04:33:58.580Z,-0.14
2022-12-14T04:36:35.185Z,-0.25
2022-12-14T04:39:10.411Z,-0.29
2022-12-14T04:41:46.005Z,-0.10
2022-12-14T04:44:22.566Z,-0.10
2022-12-14T04:46:54.141Z,0.00
2022-12-14T04:49:30.500Z,-0.04
2022-12-14T04:52:06.069Z,-0.13
2022-12-14T04:54:43.590Z,-0.01
2022-12-14T04:57:19.430Z,-0.10
2022-12-14T04:59:49.153Z,-0.27
2022-12-14T05:02:28.930Z,-0.12
2022-12-14T05:05:04.191Z,-0.11
2022-12-14T05:07:48.812Z,-0.31
2022-12-14T05:10:21.695Z,-0.16
2022-12-14T05:12:58.680Z,-0.25
2022-12-14T05:15:33.811Z,-0.44
2022-12-14T05:18:04.659Z,-0.07
2022-12-14T05:20:33.759Z,-0.07
2022-12-14T05:23:03.591Z,-0.09
2022-12-14T05:25:31.990Z,-0.19
2022-12-14T05:28:00.439Z,-0.09
2022-12-14T05:30:29.080Z,-0.17
2022-12-14T05:32:57.906Z,-0.35
2022-12-14T05:35:26.499Z,-0.19
2022-12-14T05:37:55.128Z,-0.19
2022-12-14T05:40:24.787Z,-0.30
2022-12-14T05:42:55.853Z,-0.78
2022-12-14T05:45:24.332Z,-0.32
2022-12-14T05:47:52.835Z,-0.41
2022-12-14T05:50:24.079Z,-0.30
2022-12-14T05:52:52.815Z,-0.42
2022-12-14T05:55:21.236Z,-0.29
2022-12-14T05:57:51.070Z,-0.44
2022-12-14T06:00:20.085Z,-0.28
2022-12-14T06:02:48.416Z,-0.52
2022-12-14T06:05:16.966Z,-0.35
2022-12-14T06:07:45.374Z,-0.27
2022-12-14T06:10:13.982Z,-0.32
2022-12-14T06:12:43.623Z,-0.42
2022-12-14T06:15:14.070Z,-0.50
2022-12-14T06:17:44.663Z,-0.40
2022-12-14T06:20:14.580Z,-0.42
2022-12-14T06:22:47.540Z,-0.33
2022-12-14T06:25:16.872Z,-0.50
2022-12-14T06:27:45.218Z,-0.53
2022-12-14T06:30:16.943Z,-0.65
2022-12-14T06:32:45.545Z,-0.67
2022-12-14T06:35:14.098Z,-0.88
2022-12-14T06:37:42.367Z,-0.76
2022-12-14T06:40:17.456Z,-0.83
2022-12-14T06:42:47.885Z,-0.74
2022-12-14T06:45:17.824Z,-0.76
2022-12-14T06:47:46.189Z,-1.06
2022-12-14T06:50:15.020Z,-0.92
2022-12-14T06:52:43.512Z,-0.97
2022-12-14T06:55:11.915Z,-1.22
2022-12-14T06:57:40.195Z,-1.05
2022-12-14T07:00:12.308Z,-1.16
2022-12-14T07:02:42.164Z,-1.19
2022-12-14T07:05:10.851Z,-1.31
2022-12-14T07:07:39.168Z,-1.34
2022-12-14T07:10:10.177Z,-1.41
2022-12-14T07:12:38.706Z,-1.43
2022-12-14T07:15:08.619Z,-1.57
2022-12-14T07:17:38.351Z,-1.59
2022-12-14T07:20:10.791Z,-1.55
2022-12-14T07:22:40.766Z,-1.64
2022-12-14T07:25:09.854Z,-1.68
2022-12-14T07:27:38.179Z,-1.89
2022-12-14T07:30:09.234Z,-1.82
2022-12-14T07:32:37.486Z,-1.91
2022-12-14T07:35:13.087Z,-1.94
2022-12-14T07:37:49.309Z,-2.04
2022-12-14T07:40:18.602Z,-2.07
2022-12-14T07:42:50.348Z,-2.16
2022-12-14T07:45:19.018Z,-2.05
2022-12-14T07:47:47.482Z,-2.15
2022-12-14T07:50:18.110Z,-2.20
2022-12-14T07:52:46.974Z,-2.31
2022-12-14T07:55:16.537Z,-2.13
2022-12-14T07:57:44.899Z,-2.20
2022-12-14T08:00:14.929Z,-2.52
2022-12-14T08:02:43.372Z,-2.43
2022-12-14T08:05:12.971Z,-2.29
2022-12-14T08:07:42.900Z,-2.26
2022-12-14T08:10:11.490Z,-2.33
2022-12-14T08:12:40.100Z,-2.49
2022-12-14T08:15:10.425Z,-2.40
2022-12-14T08:17:38.781Z,-2.47
2022-12-14T08:20:08.665Z,-2.40
2022-12-14T08:22:37.016Z,-2.49
2022-12-14T08:25:08.610Z,-2.42
2022-12-14T08:27:37.105Z,-2.36
2022-12-14T08:30:06.731Z,-2.39
2022-12-14T08:32:35.085Z,-2.44
2022-12-14T08:35:03.568Z,-2.39
2022-12-14T08:37:31.888Z,-2.41
2022-12-14T08:40:00.557Z,-2.40
2022-12-14T08:42:30.438Z,-2.38
2022-12-14T08:44:58.945Z,-2.45
2022-12-14T08:47:27.361Z,-2.57
2022-12-14T08:49:55.756Z,-2.43
2022-12-14T08:52:24.053Z,-2.49
2022-12-14T08:54:52.344Z,-2.34
2022-12-14T08:57:21.024Z,-2.34
2022-12-14T09:00:06.265Z,-2.39
2022-12-14T09:02:35.009Z,-2.36
2022-12-14T09:05:03.876Z,-2.51
2022-12-14T09:07:33.427Z,-2.56
2022-12-14T09:10:01.755Z,-2.29
2022-12-14T09:12:30.152Z,-2.30
2022-12-14T09:15:01.094Z,-2.20
2022-12-14T09:17:29.496Z,-2.13
2022-12-14T09:19:58.368Z,-2.04
2022-12-14T09:22:26.942Z,-2.07
2022-12-14T09:24:55.306Z,-1.97
2022-12-14T09:27:23.644Z,-1.89
2022-12-14T09:29:52.225Z,-1.91
2022-12-14T09:32:22.106Z,-1.82
2022-12-14T09:34:50.421Z,-1.82
2022-12-14T09:37:18.712Z,-1.89
2022-12-14T09:39:47.067Z,-1.81
2022-12-14T09:42:40.005Z,-1.83
2022-12-14T09:45:17.796Z,-1.89
2022-12-14T09:47:58.553Z,-1.75
2022-12-14T09:50:27.774Z,-1.66
2022-12-14T09:53:00.549Z,-1.45
2022-12-14T09:55:33.751Z,-1.45
2022-12-14T09:58:08.661Z,-1.36
2022-12-14T10:00:49.617Z,-1.42
2022-12-14T10:03:42.865Z,-1.24
2022-12-14T10:06:37.370Z,-1.38
2022-12-14T10:09:19.688Z,-1.29
2022-12-14T10:12:02.673Z,-1.43
2022-12-14T10:14:56.242Z,-1.36
2022-12-14T10:17:34.614Z,-1.18
2022-12-14T10:20:15.879Z,-1.20
2022-12-14T10:22:52.452Z,-1.13
2022-12-14T10:25:24.856Z,-0.86
2022-12-14T10:28:10.999Z,-0.86
2022-12-14T10:30:41.918Z,-0.77
2022-12-14T10:33:18.124Z,-0.70
2022-12-14T10:35:53.203Z,-0.63
2022-12-14T10:38:29.693Z,-0.78
2022-12-14T10:41:15.425Z,-0.48
2022-12-14T10:43:56.336Z,-0.47
2022-12-14T10:46:38.850Z,-0.73
2022-12-14T10:49:16.689Z,-0.67
2022-12-14T10:51:52.888Z,-0.36
2022-12-14T10:54:33.802Z,-0.35
2022-12-14T10:57:03.004Z,0.03
2022-12-14T10:59:44.766Z,-0.07
2022-12-14T11:02:28.769Z,0.15
2022-12-14T11:05:00.216Z,-0.06
2022-12-14T11:07:43.015Z,0.20
2022-12-14T11:10:18.906Z,0.49
2022-12-14T11:13:03.423Z,0.52
2022-12-14T11:15:36.306Z,0.48
2022-12-14T11:18:09.207Z,0.60
2022-12-14T11:20:37.692Z,0.93
2022-12-14T11:23:20.803Z,0.95
2022-12-14T11:25:51.520Z,1.30
2022-12-14T11:28:36.408Z,1.48
2022-12-14T11:31:08.477Z,1.66
2022-12-14T11:33:40.589Z,1.64
2022-12-14T11:36:10.089Z,1.85
2022-12-14T11:38:39.753Z,2.12
2022-12-14T11:41:11.932Z,2.35
2022-12-14T11:43:41.643Z,2.25
2022-12-14T11:46:09.973Z,2.37
2022-12-14T11:48:47.367Z,2.85
2022-12-14T11:51:15.650Z,3.10
2022-12-14T11:53:47.357Z,3.33
2022-12-14T11:56:19.050Z,3.49
2022-12-14T11:58:54.810Z,3.50
2022-12-14T12:01:27.533Z,3.68
2022-12-14T12:03:59.377Z,3.91
2022-12-14T12:06:30.934Z,4.09
2022-12-14T12:09:05.367Z,4.11
2022-12-14T12:11:36.288Z,3.66
2022-12-14T12:14:08.428Z,3.81
2022-12-14T12:16:37.552Z,3.93
2022-12-14T12:19:12.397Z,3.83
2022-12-14T12:21:44.711Z,3.87
2022-12-14T12:24:21.928Z,4.14
2022-12-14T12:26:53.911Z,4.09
2022-12-14T12:29:30.958Z,3.69
2022-12-14T12:33:53.535Z,4.01
2022-12-14T12:36:24.520Z,4.10
2022-12-14T12:39:06.798Z,4.14
2022-12-14T12:41:47.532Z,4.16
2022-12-14T12:44:39.425Z,3.98
2022-12-14T12:47:34.437Z,3.94
2022-12-14T12:50:16.885Z,3.92
2022-12-14T12:53:02.637Z,4.10
2022-12-14T12:55:36.613Z,4.16
2022-12-14T12:58:09.846Z,4.16
2022-12-14T13:00:41.231Z,4.08
2022-12-14T13:03:23.360Z,4.08
2022-12-14T13:05:57.496Z,4.33
2022-12-14T13:08:33.277Z,4.29
2022-12-14T13:14:01.750Z,4.59
2022-12-14T13:16:36.008Z,4.75
2022-12-14T13:19:48.892Z,4.77
2022-12-14T13:22:08.803Z,4.78
2022-12-14T13:24:39.201Z,4.93
2022-12-14T13:27:54.682Z,5.14
2022-12-14T13:30:35.872Z,5.24
2022-12-14T13:33:42.558Z,5.51
2022-12-14T13:37:05.176Z,5.37
2022-12-14T13:40:26.001Z,5.43
2022-12-14T13:43:06.953Z,5.20
2022-12-14T13:45:41.248Z,4.70
2022-12-14T13:48:21.588Z,4.49
2022-12-14T13:51:01.794Z,4.21
2022-12-14T13:53:36.375Z,4.21
2022-12-14T13:56:07.349Z,4.42
2022-12-14T13:58:41.095Z,3.94
2022-12-14T14:01:14.889Z,4.26
2022-12-14T14:03:55.361Z,4.30
2022-12-14T14:06:41.202Z,4.15
2022-12-14T14:10:02.702Z,3.54
2022-12-14T14:12:40.325Z,3.29
2022-12-14T14:16:28.426Z,3.67
2022-12-14T14:18:53.272Z,3.76
2022-12-14T14:21:58.819Z,3.67
2022-12-14T14:24:29.464Z,3.66
2022-12-14T14:27:12.457Z,3.78
2022-12-14T14:29:49.401Z,3.81
2022-12-14T14:32:39.527Z,3.66
2022-12-14T14:35:23.356Z,3.48
2022-12-14T14:38:01.764Z,3.21
2022-12-14T14:43:31.258Z,3.34
2022-12-14T14:46:05.752Z,3.47
2022-12-14T14:48:39.785Z,3.33
2022-12-14T14:51:21.347Z,3.21
2022-12-14T14:53:50.174Z,3.22
2022-12-14T14:56:38.207Z,2.97
2022-12-14T14:59:51.083Z,2.96
2022-12-14T15:02:42.158Z,2.89
2022-12-14T15:08:19.698Z,2.62
2022-12-14T15:10:49.679Z,2.63
2022-12-14T15:13:24.040Z,2.58
2022-12-14T15:15:54.920Z,2.51
2022-12-14T15:18:27.781Z,2.25
2022-12-14T15:21:01.905Z,2.20
2022-12-14T15:23:37.466Z,2.16
2022-12-14T15:26:17.098Z,1.88
2022-12-14T15:28:53.797Z,1.81
2022-12-14T15:31:32.134Z,1.47
2022-12-14T15:34:04.106Z,1.51
2022-12-14T15:36:37.845Z,1.33
2022-12-14T15:45:15.598Z,0.82
2022-12-14T15:47:44.098Z,0.64
2022-12-14T15:50:32.806Z,0.68
2022-12-14T15:53:14.262Z,0.67
2022-12-14T15:55:44.366Z,0.36
2022-12-14T15:58:24.601Z,0.35
2022-12-14T16:00:53.836Z,0.29
2022-12-14T16:03:31.455Z,0.09
2022-12-14T16:06:02.868Z,-0.25
2022-12-14T16:08:35.184Z,-0.30
2022-12-14T16:11:23.245Z,-0.23
2022-12-14T16:14:22.118Z,-0.47
2022-12-14T16:16:51.066Z,-0.41
2022-12-14T16:19:27.760Z,-0.40
2022-12-14T16:22:23.082Z,-0.65
2022-12-14T16:25:19.322Z,-0.90
2022-12-14T16:27:50.738Z,-0.66
2022-12-14T16:30:25.206Z,-0.76
2022-12-14T16:33:07.546Z,-0.91
2022-12-14T16:54:32.774Z,-1.42
2022-12-14T16:57:07.051Z,-1.39
2022-12-14T16:59:41.963Z,-1.60
2022-12-14T17:02:32.005Z,-1.45
2022-12-14T17:05:04.325Z,-1.58
2022-12-14T17:07:36.376Z,-1.66
2022-12-14T17:10:05.971Z,-1.87
2022-12-14T17:12:34.498Z,-1.82
2022-12-14T17:15:03.124Z,-1.66
2022-12-14T17:17:37.031Z,-1.70
2022-12-14T17:20:13.433Z,-1.75
2022-12-14T17:22:44.247Z,-1.81
2022-12-14T17:25:19.162Z,-1.77
2022-12-14T17:27:49.496Z,-1.83
2022-12-14T17:30:21.913Z,-2.00
2022-12-14T17:33:01.918Z,-1.92
2022-12-14T17:35:32.929Z,-2.05
2022-12-14T17:38:01.730Z,-2.06
2022-12-14T17:40:30.246Z,-1.98
2022-12-14T17:42:59.875Z,-2.02
2022-12-14T17:45:30.230Z,-2.03
2022-12-14T17:48:01.282Z,-2.28
2022-12-14T17:50:31.003Z,-2.08
2022-12-14T17:53:00.582Z,-2.01
2022-12-14T17:55:30.468Z,-2.10
2022-12-14T17:57:59.121Z,-2.32
2022-12-14T18:00:48.477Z,-2.12
2022-12-14T18:03:20.174Z,-2.33
2022-12-14T18:05:50.791Z,-2.25
2022-12-14T18:08:19.947Z,-2.11
2022-12-14T18:10:51.998Z,-2.16
2022-12-14T18:13:21.357Z,-2.18
2022-12-14T18:15:52.244Z,-2.16
2022-12-14T18:18:25.650Z,-2.35
2022-12-14T18:20:56.783Z,-2.29
2022-12-14T18:23:25.651Z,-2.10
2022-12-14T18:25:56.512Z,-2.19
2022-12-14T18:28:26.417Z,-2.32
2022-12-14T18:31:00.006Z,-2.31
2022-12-14T18:33:32.022Z,-2.35
2022-12-14T18:36:00.812Z,-2.43
2022-12-14T18:38:31.443Z,-2.28
2022-12-14T18:41:01.707Z,-2.27
2022-12-14T18:43:30.947Z,-2.46
2022-12-14T18:46:02.167Z,-2.27
2022-12-14T18:48:32.009Z,-2.22
2022-12-14T18:51:00.917Z,-2.23
2022-12-14T18:53:30.320Z,-2.61
2022-12-14T18:55:59.875Z,-2.50
2022-12-14T18:58:30.467Z,-2.39
2022-12-14T19:01:00.894Z,-2.35
2022-12-14T19:03:34.101Z,-2.32
2022-12-14T19:06:42.337Z,-2.31
2022-12-14T19:08:58.106Z,-2.40
2022-12-14T19:11:34.067Z,-2.28
2022-12-14T19:14:05.042Z,-2.37
2022-12-14T19:16:33.593Z,-2.37
2022-12-14T19:19:05.325Z,-2.26
2022-12-14T19:21:33.825Z,-2.30
2022-12-14T19:24:02.249Z,-2.36
2022-12-14T19:26:31.865Z,-2.31
2022-12-14T19:29:00.362Z,-2.60
2022-12-14T19:31:29.139Z,-2.37
2022-12-14T19:33:57.761Z,-2.44
2022-12-14T19:36:27.797Z,-2.33
2022-12-14T19:38:56.311Z,-2.33
2022-12-14T19:41:24.671Z,-2.28
2022-12-14T19:43:53.343Z,-2.30
2022-12-14T19:46:23.939Z,-2.44
2022-12-14T19:48:52.690Z,-2.51
2022-12-14T19:51:23.845Z,-2.56
2022-12-14T19:53:55.547Z,-2.42
2022-12-14T19:56:24.094Z,-2.46
2022-12-14T19:58:52.524Z,-2.41
2022-12-14T20:01:21.149Z,-2.42
2022-12-14T20:03:50.300Z,-2.48
2022-12-14T20:06:18.988Z,-2.48
2022-12-14T20:08:49.519Z,-2.63
2022-12-14T20:11:20.512Z,-2.47
2022-12-14T20:13:53.286Z,-2.68
2022-12-14T20:16:26.537Z,-2.45
2022-12-14T20:18:55.625Z,-2.43
2022-12-14T20:21:24.253Z,-2.40
2022-12-14T20:23:52.616Z,-2.48
2022-12-14T20:26:24.076Z,-3.04
2022-12-14T20:28:54.253Z,-2.82
2022-12-14T20:31:23.460Z,-2.65
2022-12-14T20:33:51.971Z,-2.50
2022-12-14T20:36:25.789Z,-2.80
2022-12-14T20:39:01.579Z,-2.53
2022-12-14T20:41:32.731Z,-2.52
2022-12-14T20:44:02.928Z,-2.78
2022-12-14T20:46:33.835Z,-2.62
2022-12-14T20:49:06.805Z,-2.64
2022-12-14T20:51:38.276Z,-2.60
2022-12-14T20:54:09.496Z,-2.64
2022-12-14T20:56:40.080Z,-2.64
2022-12-14T20:59:10.069Z,-2.69
2022-12-14T21:01:40.613Z,-2.46
2022-12-14T21:04:10.261Z,-2.55
2022-12-14T21:06:40.505Z,-2.72
2022-12-14T21:09:13.391Z,-2.59
2022-12-14T21:12:03.373Z,-2.42
2022-12-14T21:14:35.134Z,-2.44
2022-12-14T21:17:05.746Z,-2.47
2022-12-14T21:19:35.998Z,-2.57
2022-12-14T21:22:04.646Z,-2.29
2022-12-14T21:27:26.072Z,-2.30
2022-12-14T21:29:55.291Z,-2.29
2022-12-14T21:32:24.367Z,-2.21
2022-12-14T21:34:52.934Z,-2.34
2022-12-14T21:37:24.594Z,-2.12
2022-12-14T21:39:54.154Z,-2.17
2022-12-14T21:42:24.996Z,-2.21
2022-12-14T21:44:55.222Z,-2.13
2022-12-14T21:47:26.676Z,-2.05
2022-12-14T21:49:55.545Z,-2.20
2022-12-14T21:52:27.072Z,-2.22
2022-12-14T21:54:55.919Z,-2.12
2022-12-14T21:57:49.946Z,-2.10
2022-12-14T22:00:20.838Z,-2.48
2022-12-14T22:02:49.598Z,-2.15
2022-12-14T22:05:18.555Z,-2.15
2022-12-14T22:07:47.017Z,-2.13
2022-12-14T22:10:18.806Z,-1.99
2022-12-14T22:12:52.730Z,-1.77
2022-12-14T22:15:21.398Z,-1.64
2022-12-14T22:17:51.852Z,-1.61
2022-12-14T22:20:23.404Z,-1.64
2022-12-14T22:22:51.746Z,-1.50
2022-12-14T22:25:20.146Z,-1.47
2022-12-14T22:27:49.750Z,-1.45
2022-12-14T22:30:21.187Z,-1.58
2022-12-14T22:32:49.513Z,-1.64
2022-12-14T22:35:18.160Z,-1.47
2022-12-14T22:37:46.734Z,-1.47
2022-12-14T22:40:18.631Z,-1.44
2022-12-14T22:42:46.980Z,-1.53
2022-12-14T22:45:15.620Z,-1.44
2022-12-14T22:47:45.508Z,-1.57
2022-12-14T22:50:13.871Z,-1.36
2022-12-14T22:52:42.372Z,-1.43
2022-12-14T22:55:12.474Z,-1.59
2022-12-14T22:57:46.251Z,-1.32
2022-12-14T23:00:16.968Z,-1.60
2022-12-14T23:02:48.913Z,-1.51
2022-12-14T23:05:18.468Z,-1.57
2022-12-14T23:07:47.515Z,-1.48
2022-12-14T23:10:33.530Z,-1.32
2022-12-14T23:13:20.504Z,-1.29
2022-12-14T23:16:06.573Z,-1.44
2022-12-14T23:18:53.835Z,-1.58
2022-12-14T23:21:39.476Z,-1.83
2022-12-14T23:24:26.665Z,-1.41
2022-12-14T23:27:12.621Z,-1.70
2022-12-14T23:29:58.876Z,-1.52
2022-12-14T23:32:45.497Z,-1.63
2022-12-14T23:35:33.186Z,-1.51
2022-12-14T23:38:23.628Z,-1.56
2022-12-14T23:41:09.531Z,-1.53
2022-12-14T23:43:55.312Z,-1.62
2022-12-14T23:46:41.243Z,-1.70
2022-12-14T23:49:27.460Z,-1.62
2022-12-14T23:52:17.452Z,-1.77
2022-12-14T23:55:03.340Z,-1.64
2022-12-14T23:57:48.980Z,-1.59
